Tommy E. — WCX6752 — position and weather

sailwx.info

Track history (hours):
 
Tides and Currents Weather Stations Pressure Air Temp Water Temp Dewpoint Dewpoint Depression Visibility Wind Speed Wind Dir Waves Ship Positions

Tommy E.

Owner: INC, Echo Towing Service, BAYTOWN, TX. More information available from US FCC via Universal Licensing System and Coast Guard Vessel Documentation Center.

Last reported at 2018-Jul-23 15:00 UTC. Time now 2018-Jul-23 15:06 UTC.
Position N 29°25' W 094°49'.

Length 17 m.

Type: Towing. MMSI: 366969670.

Date/timePositionNaut miles runAvg speedWind from/ knotsBaromVisibWave heightAir tempDewpointWater temp
2018-Jul-23 15:00N 29°25' W 094°49'3 5.7
2018-Jul-23 14:30N 29°22' W 094°48'3 5.1
2018-Jul-23 14:00N 29°20' W 094°50'3 5.9
2018-Jul-23 13:28N 29°18' W 094°53'2 4.5
2018-Jul-23 13:00N 29°17' W 094°55'2 4.3
2018-Jul-23 12:29N 29°17' W 094°58'2 4.9
2018-Jul-23 12:00N 29°16' W 094°60'2 5.0
2018-Jul-23 11:30N 29°14' W 095°02'2 4.7
2018-Jul-23 11:00N 29°12' W 095°04'3 5.2
2018-Jul-23 10:30N 29°11' W 095°06'3 5.4
2018-Jul-23 10:00N 29°09' W 095°09'3 6.6
2018-Jul-23 09:30N 29°07' W 095°11'3 6.5
2018-Jul-23 09:00N 29°04' W 095°13'3 6.5
2018-Jul-23 08:30N 29°01' W 095°14'3 6.5
2018-Jul-23 08:00N 28°59' W 095°17'3 6.0
2018-Jul-23 07:30N 28°56' W 095°19'1 1.8
2018-Jul-23 06:59N 28°56' W 095°20'0 0.0
2018-Jul-23 06:30N 28°56' W 095°20'0 0.0
2018-Jul-23 06:00N 28°56' W 095°20'0 0.0
2018-Jul-23 05:30N 28°56' W 095°20'0 0.0
2018-Jul-23 05:00N 28°56' W 095°20'0 0.0
2018-Jul-23 04:21N 28°56' W 095°20'0 0.0
2018-Jul-23 03:59N 28°56' W 095°20'0 0.0
2018-Jul-23 03:30N 28°56' W 095°20'0 0.0
2018-Jul-23 03:00N 28°56' W 095°20'0 0.0
2018-Jul-23 02:28N 28°56' W 095°20'0 0.0
2018-Jul-23 01:58N 28°56' W 095°20'0 0.0
2018-Jul-23 01:30N 28°56' W 095°20'0 0.0
2018-Jul-23 01:00N 28°56' W 095°20'0 0.0
2018-Jul-23 00:18N 28°56' W 095°20'0 0.0
2018-Jul-22 23:58N 28°56' W 095°20'0 0.0
2018-Jul-22 21:51N 28°56' W 095°20'0 0.0
2018-Jul-22 21:30N 28°56' W 095°20'0 0.0
2018-Jul-22 20:56N 28°56' W 095°20'0 0.0
2018-Jul-22 20:29N 28°56' W 095°20'0 0.0
2018-Jul-22 20:00N 28°56' W 095°20'0 0.0
2018-Jul-22 19:30N 28°56' W 095°20'0 0.0
2018-Jul-22 18:58N 28°56' W 095°20'0 0.0
2018-Jul-22 18:25N 28°56' W 095°20'0 0.0
2018-Jul-22 18:00N 28°56' W 095°20'0 0.0
2018-Jul-22 17:30N 28°56' W 095°20'0 0.0
2018-Jul-22 16:58N 28°56' W 095°20'0 0.0
2018-Jul-22 16:26N 28°56' W 095°20'0 0.0
2018-Jul-22 15:59N 28°56' W 095°20'0 0.0
2018-Jul-22 15:00N 28°56' W 095°20'0 0.0
2018-Jul-22 14:28N 28°56' W 095°20'0 0.0
2018-Jul-22 14:00N 28°56' W 095°20'0 0.0
2018-Jul-22 13:29N 28°56' W 095°20'0 0.1
2018-Jul-22 13:00N 28°56' W 095°20'1 1.0
2018-Jul-22 12:27N 28°57' W 095°20'0 0.0
2018-Jul-22 11:51N 28°57' W 095°20'0 0.0
2018-Jul-22 11:30N 28°57' W 095°20'0 0.0
2018-Jul-22 11:00N 28°57' W 095°20'0 0.0
2018-Jul-22 10:25N 28°57' W 095°20'0 0.0
2018-Jul-22 10:00N 28°57' W 095°20'0 0.0
2018-Jul-22 09:30N 28°57' W 095°20'0 0.0
2018-Jul-22 09:00N 28°57' W 095°20'0 0.0
2018-Jul-22 08:30N 28°57' W 095°20'0 0.0
2018-Jul-22 07:59N 28°57' W 095°20'0 0.0
2018-Jul-22 07:23N 28°57' W 095°20'0 0.0
2018-Jul-22 06:13N 28°57' W 095°20'0 0.0
2018-Jul-22 06:00N 28°57' W 095°20'0 0.0
2018-Jul-22 05:24N 28°57' W 095°20'0 0.0
2018-Jul-22 04:58N 28°57' W 095°20'0 0.0
2018-Jul-22 04:07N 28°57' W 095°20'0 0.0
2018-Jul-22 03:59N 28°57' W 095°20'0 0.0
2018-Jul-22 03:30N 28°57' W 095°20'0 0.0
2018-Jul-22 03:00N 28°57' W 095°20'0 0.0
2018-Jul-22 02:30N 28°57' W 095°20'0 0.0
2018-Jul-22 01:49N 28°57' W 095°20'0 0.0
2018-Jul-22 01:24N 28°57' W 095°20'0 0.0
2018-Jul-22 01:00N 28°57' W 095°20'0 0.0
2018-Jul-21 23:04N 28°57' W 095°20'0 0.0
2018-Jul-21 18:37N 28°57' W 095°20'0 0.0
2018-Jul-21 18:29N 28°57' W 095°20'0 0.0
2018-Jul-21 16:45N 28°57' W 095°20'0 0.0
2018-Jul-21 16:30N 28°57' W 095°20'0 0.0
2018-Jul-21 16:00N 28°57' W 095°20'0 0.0
2018-Jul-21 15:24N 28°57' W 095°20'0 0.0
2018-Jul-21 15:00N 28°57' W 095°20'0 0.0
2018-Jul-21 14:30N 28°57' W 095°20'0 0.1
2018-Jul-21 14:00N 28°57' W 095°20'0 0.0
2018-Jul-21 13:30N 28°57' W 095°20'0 0.0
2018-Jul-21 13:00N 28°57' W 095°20'0 0.0
2018-Jul-21 12:24N 28°57' W 095°20'0 0.0
2018-Jul-21 12:00N 28°57' W 095°20'0 0.0
2018-Jul-21 11:26N 28°57' W 095°20'0 0.0
2018-Jul-21 10:50N 28°57' W 095°20'0 0.0
2018-Jul-21 10:05N 28°57' W 095°20'0 0.0
2018-Jul-21 10:00N 28°57' W 095°20'0 0.0
2018-Jul-21 09:30N 28°57' W 095°20'0 0.0
2018-Jul-21 09:00N 28°57' W 095°20'0 0.0
2018-Jul-21 08:30N 28°57' W 095°20'0 0.0
2018-Jul-21 07:28N 28°57' W 095°20'0 0.0
2018-Jul-21 06:58N 28°57' W 095°20'0 0.0
2018-Jul-21 06:22N 28°57' W 095°20'0 0.0
2018-Jul-21 05:54N 28°57' W 095°20'0 0.0
2018-Jul-21 05:30N 28°57' W 095°20'0 0.0
2018-Jul-21 05:00N 28°57' W 095°20'0 0.0
2018-Jul-21 04:28N 28°57' W 095°20'0 0.0
2018-Jul-21 04:00N 28°57' W 095°20'0 0.0
2018-Jul-21 03:29N 28°57' W 095°20'0 0.0
2018-Jul-21 03:00N 28°57' W 095°20'0 0.0
2018-Jul-21 02:29N 28°57' W 095°20'0 0.0
2018-Jul-21 01:52N 28°57' W 095°20'0 0.9
2018-Jul-21 01:30N 28°56' W 095°20'1 2.7
2018-Jul-21 01:00N 28°57' W 095°18'3 3.7
2018-Jul-21 00:17N 28°59' W 095°17'2 3.9
2018-Jul-20 23:49N 29°00' W 095°15'1 4.1
2018-Jul-20 23:30N 29°01' W 095°14'2 3.9
2018-Jul-20 22:59N 29°03' W 095°13'2 3.7
2018-Jul-20 22:30N 29°05' W 095°13'2 3.5
2018-Jul-20 22:00N 29°06' W 095°12'1 3.0
2018-Jul-20 21:30N 29°07' W 095°11'1 2.9
2018-Jul-20 21:00N 29°08' W 095°10'2 3.3
2018-Jul-20 20:30N 29°09' W 095°08'2 3.6
2018-Jul-20 20:00N 29°10' W 095°07'2 3.5
2018-Jul-20 19:30N 29°11' W 095°05'2 3.7
2018-Jul-20 19:00N 29°12' W 095°03'2 3.5
2018-Jul-20 18:30N 29°14' W 095°02'2 3.7
2018-Jul-20 18:00N 29°15' W 095°00'2 3.8
2018-Jul-20 17:30N 29°16' W 094°59'2 3.6
2018-Jul-20 17:00N 29°17' W 094°57'2 3.7
2018-Jul-20 16:30N 29°17' W 094°55'2 3.2
2018-Jul-20 16:00N 29°18' W 094°53'1 2.7
2018-Jul-20 15:30N 29°19' W 094°52'2 3.9
2018-Jul-20 15:00N 29°20' W 094°50'2 3.6
2018-Jul-20 14:30N 29°21' W 094°49'2 3.4
2018-Jul-20 13:58N 29°22' W 094°51'2 3.8
2018-Jul-20 13:29N 29°23' W 094°53'1 1.9
2018-Jul-20 13:00N 29°22' W 094°53'0 0.0
2018-Jul-20 12:29N 29°22' W 094°53'0 0.0
2018-Jul-20 11:59N 29°22' W 094°53'0 0.0
2018-Jul-20 11:29N 29°22' W 094°53'0 0.0
2018-Jul-20 11:00N 29°22' W 094°53'0 0.0
2018-Jul-20 10:30N 29°22' W 094°53'0 0.0
2018-Jul-20 09:57N 29°22' W 094°53'0 0.0
2018-Jul-20 09:30N 29°22' W 094°53'0 0.0
2018-Jul-20 08:59N 29°22' W 094°53'0 0.0
2018-Jul-20 08:30N 29°22' W 094°53'0 0.0
2018-Jul-20 07:58N 29°22' W 094°53'0 0.0
2018-Jul-20 07:30N 29°22' W 094°53'0 0.0
2018-Jul-20 07:00N 29°22' W 094°53'0 0.0
2018-Jul-20 06:30N 29°22' W 094°53'0 0.0
2018-Jul-20 06:00N 29°22' W 094°53'0 0.0
2018-Jul-20 05:30N 29°22' W 094°53'0 0.0
2018-Jul-20 05:00N 29°22' W 094°53'0 0.0
2018-Jul-20 04:30N 29°22' W 094°53'0 0.0
2018-Jul-20 04:00N 29°22' W 094°53'0 0.0
2018-Jul-20 03:30N 29°22' W 094°53'0 0.0
2018-Jul-20 03:01N 29°22' W 094°53'0 0.0
2018-Jul-20 02:30N 29°22' W 094°53'0 0.0
2018-Jul-20 02:01N 29°22' W 094°53'0 0.0
2018-Jul-20 01:30N 29°22' W 094°53'0 0.0
2018-Jul-20 01:00N 29°22' W 094°53'0 0.0
2018-Jul-20 00:28N 29°22' W 094°53'0 0.0
2018-Jul-19 23:59N 29°22' W 094°53'0 0.0
2018-Jul-19 21:37N 29°22' W 094°53'0 0.0
2018-Jul-19 18:57N 29°22' W 094°53'0 0.0
2018-Jul-19 18:28N 29°22' W 094°53'0 0.1
2018-Jul-19 18:00N 29°22' W 094°53'2 3.6
2018-Jul-19 17:29N 29°23' W 094°51'2 5.1
2018-Jul-19 17:00N 29°22' W 094°49'3 5.2
2018-Jul-19 16:30N 29°23' W 094°46'3 4.3
2018-Jul-19 15:53N 29°25' W 094°44'1 1.8
2018-Jul-19 15:26N 29°25' W 094°43'0 0.0
2018-Jul-19 14:57N 29°25' W 094°43'0 0.0
2018-Jul-19 14:26N 29°25' W 094°43'0 0.0
2018-Jul-19 13:30N 29°25' W 094°43'0 0.0
2018-Jul-19 13:00N 29°25' W 094°43'0 0.0
2018-Jul-19 12:30N 29°26' W 094°43'0 0.0
2018-Jul-19 12:00N 29°25' W 094°43'0 0.0
2018-Jul-19 11:23N 29°25' W 094°43'0 0.0
2018-Jul-19 11:00N 29°26' W 094°43'0 0.0
2018-Jul-19 10:30N 29°25' W 094°43'0 0.0
2018-Jul-19 09:59N 29°25' W 094°43'0 0.0
2018-Jul-19 09:31N 29°25' W 094°43'0 0.0
2018-Jul-19 09:00N 29°26' W 094°43'0 0.0
2018-Jul-19 08:29N 29°26' W 094°43'0 0.0
2018-Jul-19 08:00N 29°25' W 094°43'0 0.0
2018-Jul-19 07:30N 29°25' W 094°43'0 0.1
2018-Jul-19 07:00N 29°26' W 094°43'2 3.9
2018-Jul-19 06:30N 29°24' W 094°45'2 4.2
2018-Jul-19 05:59N 29°23' W 094°47'1 3.1
2018-Jul-19 05:30N 29°22' W 094°48'2 4.1
2018-Jul-19 05:00N 29°24' W 094°49'3 4.9
2018-Jul-19 04:30N 29°26' W 094°50'3 5.3
2018-Jul-19 04:00N 29°29' W 094°52'3 5.5
2018-Jul-19 03:30N 29°31' W 094°53'3 5.6
2018-Jul-19 03:00N 29°34' W 094°55'3 5.7
2018-Jul-19 02:30N 29°36' W 094°57'3 5.8
2018-Jul-19 02:00N 29°39' W 094°58'3 6.3
2018-Jul-19 01:30N 29°42' W 094°60'3 5.4
2018-Jul-19 00:58N 29°44' W 095°02'4 0.4
2018-Jul-18 12:51N 29°48' W 095°04'0 0.0
2018-Jul-18 12:25N 29°48' W 095°04'0 0.0
2018-Jul-18 11:45N 29°48' W 095°04'0 0.0
2018-Jul-18 11:26N 29°48' W 095°04'0 0.0
2018-Jul-18 10:16N 29°48' W 095°04'0 0.0
2018-Jul-18 09:59N 29°48' W 095°04'1 1.1
2018-Jul-18 09:26N 29°47' W 095°04'2 5.1
2018-Jul-18 09:00N 29°46' W 095°06'1 0.8
2018-Jul-18 08:16N 29°46' W 095°07'1 2.3
2018-Jul-18 07:58N 29°46' W 095°06'2 3.6
2018-Jul-18 07:30N 29°45' W 095°04'3 5.2
2018-Jul-18 07:00N 29°44' W 095°02'3 5.0
2018-Jul-18 06:28N 29°42' W 094°60'2 4.8
2018-Jul-18 05:58N 29°41' W 094°57'2 3.3
2018-Jul-18 05:28N 29°41' W 094°55'1 1.5
2018-Jul-18 05:00N 29°42' W 094°56'1 2.1
2018-Jul-18 04:27N 29°43' W 094°56'0 0.8
2018-Jul-18 04:00N 29°43' W 094°56'0 0.9
2018-Jul-18 03:29N 29°43' W 094°56'0 0.0
2018-Jul-18 02:50N 29°43' W 094°56'3 2.5
2018-Jul-18 01:43N 29°41' W 094°56'1 5.9
2018-Jul-18 01:30N 29°41' W 094°58'3 5.4
2018-Jul-18 00:57N 29°42' W 095°01'0 0.1
2018-Jul-17 20:22N 29°42' W 095°01'3 6.4
2018-Jul-17 19:59N 29°41' W 094°59'3 7.1
2018-Jul-17 19:30N 29°38' W 094°58'3 6.9
2018-Jul-17 19:00N 29°35' W 094°56'13 7.4
2018-Jul-17 17:17N 29°23' W 094°49'2 7.1
2018-Jul-17 16:57N 29°21' W 094°49'3 6.8
2018-Jul-17 16:30N 29°19' W 094°52'3 5.7
2018-Jul-17 15:58N 29°17' W 094°54'3 4.7
2018-Jul-17 15:15N 29°17' W 094°58'1 5.6
2018-Jul-17 15:00N 29°16' W 094°59'3 6.0
2018-Jul-17 14:30N 29°14' W 095°02'3 5.8
2018-Jul-17 14:00N 29°12' W 095°04'3 6.1
2018-Jul-17 13:31N 29°10' W 095°07'3 6.6
2018-Jul-17 13:00N 29°08' W 095°10'3 6.4
2018-Jul-17 12:30N 29°06' W 095°12'3 6.4
2018-Jul-17 12:00N 29°03' W 095°13'3 6.8
2018-Jul-17 11:30N 28°60' W 095°15'4 7.4
2018-Jul-17 11:00N 28°57' W 095°18'3 6.4
2018-Jul-17 10:28N 28°55' W 095°21'2 4.7
2018-Jul-17 09:58N 28°54' W 095°24'5 5.9
2018-Jul-17 09:09N 28°52' W 095°28'2 6.2
2018-Jul-17 08:53N 28°51' W 095°30'2 5.9
2018-Jul-17 08:30N 28°50' W 095°32'3 5.6
2018-Jul-17 08:00N 28°48' W 095°34'3 5.7
2018-Jul-17 07:28N 28°46' W 095°37'3 6.1
2018-Jul-17 07:00N 28°46' W 095°41'4 6.6
2018-Jul-17 06:28N 28°45' W 095°44'3 5.8
2018-Jul-17 05:59N 28°45' W 095°48'3 5.6
2018-Jul-17 05:29N 28°44' W 095°51'3 5.6
2018-Jul-17 04:58N 28°43' W 095°54'2 5.3
2018-Jul-17 04:30N 28°42' W 095°56'2 4.7
2018-Jul-17 04:00N 28°41' W 095°59'1 1.9
2018-Jul-17 03:30N 28°40' W 095°60'0 0.9
2018-Jul-17 02:59N 28°40' W 096°00'1 1.4
2018-Jul-17 02:30N 28°40' W 096°01'13 5.7
2018-Jul-17 00:18N 28°33' W 096°13'30 1.9
2018-Jul-16 08:31N 28°29' W 096°47'0 0.0
2018-Jul-16 08:30N 28°29' W 096°47'0 0.0
2018-Jul-16 07:22N 28°29' W 096°47'  
Track history (hours):
 
Tides and Currents Weather Stations Pressure Air Temp Water Temp Dewpoint Dewpoint Depression Visibility Wind Speed Wind Dir Waves Ship Positions

Tommy E.

Owner: INC, Echo Towing Service, BAYTOWN, TX. More information available from US FCC via Universal Licensing System and Coast Guard Vessel Documentation Center.

Last reported at 2018-Jul-23 15:00 UTC. Time now 2018-Jul-23 15:06 UTC.
Position N 29°25' W 094°49'.

Length 17 m.

Type: Towing. MMSI: 366969670.

Date/timePositionNaut miles runAvg speedWind from/ knotsBaromVisibWave heightAir tempDewpointWater temp
2018-Jul-23 15:00N 29°25' W 094°49'3 5.7
2018-Jul-23 14:30N 29°22' W 094°48'3 5.1
2018-Jul-23 14:00N 29°20' W 094°50'3 5.9
2018-Jul-23 13:28N 29°18' W 094°53'2 4.5
2018-Jul-23 13:00N 29°17' W 094°55'2 4.3
2018-Jul-23 12:29N 29°17' W 094°58'2 4.9
2018-Jul-23 12:00N 29°16' W 094°60'2 5.0
2018-Jul-23 11:30N 29°14' W 095°02'2 4.7
2018-Jul-23 11:00N 29°12' W 095°04'3 5.2
2018-Jul-23 10:30N 29°11' W 095°06'3 5.4
2018-Jul-23 10:00N 29°09' W 095°09'3 6.6
2018-Jul-23 09:30N 29°07' W 095°11'3 6.5
2018-Jul-23 09:00N 29°04' W 095°13'3 6.5
2018-Jul-23 08:30N 29°01' W 095°14'3 6.5
2018-Jul-23 08:00N 28°59' W 095°17'3 6.0
2018-Jul-23 07:30N 28°56' W 095°19'1 1.8
2018-Jul-23 06:59N 28°56' W 095°20'0 0.0
2018-Jul-23 06:30N 28°56' W 095°20'0 0.0
2018-Jul-23 06:00N 28°56' W 095°20'0 0.0
2018-Jul-23 05:30N 28°56' W 095°20'0 0.0
2018-Jul-23 05:00N 28°56' W 095°20'0 0.0
2018-Jul-23 04:21N 28°56' W 095°20'0 0.0
2018-Jul-23 03:59N 28°56' W 095°20'0 0.0
2018-Jul-23 03:30N 28°56' W 095°20'0 0.0
2018-Jul-23 03:00N 28°56' W 095°20'0 0.0
2018-Jul-23 02:28N 28°56' W 095°20'0 0.0
2018-Jul-23 01:58N 28°56' W 095°20'0 0.0
2018-Jul-23 01:30N 28°56' W 095°20'0 0.0
2018-Jul-23 01:00N 28°56' W 095°20'0 0.0
2018-Jul-23 00:18N 28°56' W 095°20'0 0.0
2018-Jul-22 23:58N 28°56' W 095°20'0 0.0
2018-Jul-22 21:51N 28°56' W 095°20'0 0.0
2018-Jul-22 21:30N 28°56' W 095°20'0 0.0
2018-Jul-22 20:56N 28°56' W 095°20'0 0.0
2018-Jul-22 20:29N 28°56' W 095°20'0 0.0
2018-Jul-22 20:00N 28°56' W 095°20'0 0.0
2018-Jul-22 19:30N 28°56' W 095°20'0 0.0
2018-Jul-22 18:58N 28°56' W 095°20'0 0.0
2018-Jul-22 18:25N 28°56' W 095°20'0 0.0
2018-Jul-22 18:00N 28°56' W 095°20'0 0.0
2018-Jul-22 17:30N 28°56' W 095°20'0 0.0
2018-Jul-22 16:58N 28°56' W 095°20'0 0.0
2018-Jul-22 16:26N 28°56' W 095°20'0 0.0
2018-Jul-22 15:59N 28°56' W 095°20'0 0.0
2018-Jul-22 15:00N 28°56' W 095°20'0 0.0
2018-Jul-22 14:28N 28°56' W 095°20'0 0.0
2018-Jul-22 14:00N 28°56' W 095°20'0 0.0
2018-Jul-22 13:29N 28°56' W 095°20'0 0.1
2018-Jul-22 13:00N 28°56' W 095°20'1 1.0
2018-Jul-22 12:27N 28°57' W 095°20'0 0.0
2018-Jul-22 11:51N 28°57' W 095°20'0 0.0
2018-Jul-22 11:30N 28°57' W 095°20'0 0.0
2018-Jul-22 11:00N 28°57' W 095°20'0 0.0
2018-Jul-22 10:25N 28°57' W 095°20'0 0.0
2018-Jul-22 10:00N 28°57' W 095°20'0 0.0
2018-Jul-22 09:30N 28°57' W 095°20'0 0.0
2018-Jul-22 09:00N 28°57' W 095°20'0 0.0
2018-Jul-22 08:30N 28°57' W 095°20'0 0.0
2018-Jul-22 07:59N 28°57' W 095°20'0 0.0
2018-Jul-22 07:23N 28°57' W 095°20'0 0.0
2018-Jul-22 06:13N 28°57' W 095°20'0 0.0
2018-Jul-22 06:00N 28°57' W 095°20'0 0.0
2018-Jul-22 05:24N 28°57' W 095°20'0 0.0
2018-Jul-22 04:58N 28°57' W 095°20'0 0.0
2018-Jul-22 04:07N 28°57' W 095°20'0 0.0
2018-Jul-22 03:59N 28°57' W 095°20'0 0.0
2018-Jul-22 03:30N 28°57' W 095°20'0 0.0
2018-Jul-22 03:00N 28°57' W 095°20'0 0.0
2018-Jul-22 02:30N 28°57' W 095°20'0 0.0
2018-Jul-22 01:49N 28°57' W 095°20'0 0.0
2018-Jul-22 01:24N 28°57' W 095°20'0 0.0
2018-Jul-22 01:00N 28°57' W 095°20'0 0.0
2018-Jul-21 23:04N 28°57' W 095°20'0 0.0
2018-Jul-21 18:37N 28°57' W 095°20'0 0.0
2018-Jul-21 18:29N 28°57' W 095°20'0 0.0
2018-Jul-21 16:45N 28°57' W 095°20'0 0.0
2018-Jul-21 16:30N 28°57' W 095°20'0 0.0
2018-Jul-21 16:00N 28°57' W 095°20'0 0.0
2018-Jul-21 15:24N 28°57' W 095°20'0 0.0
2018-Jul-21 15:00N 28°57' W 095°20'0 0.0
2018-Jul-21 14:30N 28°57' W 095°20'0 0.1
2018-Jul-21 14:00N 28°57' W 095°20'0 0.0
2018-Jul-21 13:30N 28°57' W 095°20'0 0.0
2018-Jul-21 13:00N 28°57' W 095°20'0 0.0
2018-Jul-21 12:24N 28°57' W 095°20'0 0.0
2018-Jul-21 12:00N 28°57' W 095°20'0 0.0
2018-Jul-21 11:26N 28°57' W 095°20'0 0.0
2018-Jul-21 10:50N 28°57' W 095°20'0 0.0
2018-Jul-21 10:05N 28°57' W 095°20'0 0.0
2018-Jul-21 10:00N 28°57' W 095°20'0 0.0
2018-Jul-21 09:30N 28°57' W 095°20'0 0.0
2018-Jul-21 09:00N 28°57' W 095°20'0 0.0
2018-Jul-21 08:30N 28°57' W 095°20'0 0.0
2018-Jul-21 07:28N 28°57' W 095°20'0 0.0
2018-Jul-21 06:58N 28°57' W 095°20'0 0.0
2018-Jul-21 06:22N 28°57' W 095°20'0 0.0
2018-Jul-21 05:54N 28°57' W 095°20'0 0.0
2018-Jul-21 05:30N 28°57' W 095°20'0 0.0
2018-Jul-21 05:00N 28°57' W 095°20'0 0.0
2018-Jul-21 04:28N 28°57' W 095°20'0 0.0
2018-Jul-21 04:00N 28°57' W 095°20'0 0.0
2018-Jul-21 03:29N 28°57' W 095°20'0 0.0
2018-Jul-21 03:00N 28°57' W 095°20'0 0.0
2018-Jul-21 02:29N 28°57' W 095°20'0 0.0
2018-Jul-21 01:52N 28°57' W 095°20'0 0.9
2018-Jul-21 01:30N 28°56' W 095°20'1 2.7
2018-Jul-21 01:00N 28°57' W 095°18'3 3.7
2018-Jul-21 00:17N 28°59' W 095°17'2 3.9
2018-Jul-20 23:49N 29°00' W 095°15'1 4.1
2018-Jul-20 23:30N 29°01' W 095°14'2 3.9
2018-Jul-20 22:59N 29°03' W 095°13'2 3.7
2018-Jul-20 22:30N 29°05' W 095°13'2 3.5
2018-Jul-20 22:00N 29°06' W 095°12'1 3.0
2018-Jul-20 21:30N 29°07' W 095°11'1 2.9
2018-Jul-20 21:00N 29°08' W 095°10'2 3.3
2018-Jul-20 20:30N 29°09' W 095°08'2 3.6
2018-Jul-20 20:00N 29°10' W 095°07'2 3.5
2018-Jul-20 19:30N 29°11' W 095°05'2 3.7
2018-Jul-20 19:00N 29°12' W 095°03'2 3.5
2018-Jul-20 18:30N 29°14' W 095°02'2 3.7
2018-Jul-20 18:00N 29°15' W 095°00'2 3.8
2018-Jul-20 17:30N 29°16' W 094°59'2 3.6
2018-Jul-20 17:00N 29°17' W 094°57'2 3.7
2018-Jul-20 16:30N 29°17' W 094°55'2 3.2
2018-Jul-20 16:00N 29°18' W 094°53'1 2.7
2018-Jul-20 15:30N 29°19' W 094°52'2 3.9
2018-Jul-20 15:00N 29°20' W 094°50'2 3.6
2018-Jul-20 14:30N 29°21' W 094°49'2 3.4
2018-Jul-20 13:58N 29°22' W 094°51'2 3.8
2018-Jul-20 13:29N 29°23' W 094°53'1 1.9
2018-Jul-20 13:00N 29°22' W 094°53'0 0.0
2018-Jul-20 12:29N 29°22' W 094°53'0 0.0
2018-Jul-20 11:59N 29°22' W 094°53'0 0.0
2018-Jul-20 11:29N 29°22' W 094°53'0 0.0
2018-Jul-20 11:00N 29°22' W 094°53'0 0.0
2018-Jul-20 10:30N 29°22' W 094°53'0 0.0
2018-Jul-20 09:57N 29°22' W 094°53'0 0.0
2018-Jul-20 09:30N 29°22' W 094°53'0 0.0
2018-Jul-20 08:59N 29°22' W 094°53'0 0.0
2018-Jul-20 08:30N 29°22' W 094°53'0 0.0
2018-Jul-20 07:58N 29°22' W 094°53'0 0.0
2018-Jul-20 07:30N 29°22' W 094°53'0 0.0
2018-Jul-20 07:00N 29°22' W 094°53'0 0.0
2018-Jul-20 06:30N 29°22' W 094°53'0 0.0
2018-Jul-20 06:00N 29°22' W 094°53'0 0.0
2018-Jul-20 05:30N 29°22' W 094°53'0 0.0
2018-Jul-20 05:00N 29°22' W 094°53'0 0.0
2018-Jul-20 04:30N 29°22' W 094°53'0 0.0
2018-Jul-20 04:00N 29°22' W 094°53'0 0.0
2018-Jul-20 03:30N 29°22' W 094°53'0 0.0
2018-Jul-20 03:01N 29°22' W 094°53'0 0.0
2018-Jul-20 02:30N 29°22' W 094°53'0 0.0
2018-Jul-20 02:01N 29°22' W 094°53'0 0.0
2018-Jul-20 01:30N 29°22' W 094°53'0 0.0
2018-Jul-20 01:00N 29°22' W 094°53'0 0.0
2018-Jul-20 00:28N 29°22' W 094°53'0 0.0
2018-Jul-19 23:59N 29°22' W 094°53'0 0.0
2018-Jul-19 21:37N 29°22' W 094°53'0 0.0
2018-Jul-19 18:57N 29°22' W 094°53'0 0.0
2018-Jul-19 18:28N 29°22' W 094°53'0 0.1
2018-Jul-19 18:00N 29°22' W 094°53'2 3.6
2018-Jul-19 17:29N 29°23' W 094°51'2 5.1
2018-Jul-19 17:00N 29°22' W 094°49'3 5.2
2018-Jul-19 16:30N 29°23' W 094°46'3 4.3
2018-Jul-19 15:53N 29°25' W 094°44'1 1.8
2018-Jul-19 15:26N 29°25' W 094°43'0 0.0
2018-Jul-19 14:57N 29°25' W 094°43'0 0.0
2018-Jul-19 14:26N 29°25' W 094°43'0 0.0
2018-Jul-19 13:30N 29°25' W 094°43'0 0.0
2018-Jul-19 13:00N 29°25' W 094°43'0 0.0
2018-Jul-19 12:30N 29°26' W 094°43'0 0.0
2018-Jul-19 12:00N 29°25' W 094°43'0 0.0
2018-Jul-19 11:23N 29°25' W 094°43'0 0.0
2018-Jul-19 11:00N 29°26' W 094°43'0 0.0
2018-Jul-19 10:30N 29°25' W 094°43'0 0.0
2018-Jul-19 09:59N 29°25' W 094°43'0 0.0
2018-Jul-19 09:31N 29°25' W 094°43'0 0.0
2018-Jul-19 09:00N 29°26' W 094°43'0 0.0
2018-Jul-19 08:29N 29°26' W 094°43'0 0.0
2018-Jul-19 08:00N 29°25' W 094°43'0 0.0
2018-Jul-19 07:30N 29°25' W 094°43'0 0.1
2018-Jul-19 07:00N 29°26' W 094°43'2 3.9
2018-Jul-19 06:30N 29°24' W 094°45'2 4.2
2018-Jul-19 05:59N 29°23' W 094°47'1 3.1
2018-Jul-19 05:30N 29°22' W 094°48'2 4.1
2018-Jul-19 05:00N 29°24' W 094°49'3 4.9
2018-Jul-19 04:30N 29°26' W 094°50'3 5.3
2018-Jul-19 04:00N 29°29' W 094°52'3 5.5
2018-Jul-19 03:30N 29°31' W 094°53'3 5.6
2018-Jul-19 03:00N 29°34' W 094°55'3 5.7
2018-Jul-19 02:30N 29°36' W 094°57'3 5.8
2018-Jul-19 02:00N 29°39' W 094°58'3 6.3
2018-Jul-19 01:30N 29°42' W 094°60'3 5.4
2018-Jul-19 00:58N 29°44' W 095°02'4 0.4
2018-Jul-18 12:51N 29°48' W 095°04'0 0.0
2018-Jul-18 12:25N 29°48' W 095°04'0 0.0
2018-Jul-18 11:45N 29°48' W 095°04'0 0.0
2018-Jul-18 11:26N 29°48' W 095°04'0 0.0
2018-Jul-18 10:16N 29°48' W 095°04'0 0.0
2018-Jul-18 09:59N 29°48' W 095°04'1 1.1
2018-Jul-18 09:26N 29°47' W 095°04'2 5.1
2018-Jul-18 09:00N 29°46' W 095°06'1 0.8
2018-Jul-18 08:16N 29°46' W 095°07'1 2.3
2018-Jul-18 07:58N 29°46' W 095°06'2 3.6
2018-Jul-18 07:30N 29°45' W 095°04'3 5.2
2018-Jul-18 07:00N 29°44' W 095°02'3 5.0
2018-Jul-18 06:28N 29°42' W 094°60'2 4.8
2018-Jul-18 05:58N 29°41' W 094°57'2 3.3
2018-Jul-18 05:28N 29°41' W 094°55'1 1.5
2018-Jul-18 05:00N 29°42' W 094°56'1 2.1
2018-Jul-18 04:27N 29°43' W 094°56'0 0.8
2018-Jul-18 04:00N 29°43' W 094°56'0 0.9
2018-Jul-18 03:29N 29°43' W 094°56'0 0.0
2018-Jul-18 02:50N 29°43' W 094°56'3 2.5
2018-Jul-18 01:43N 29°41' W 094°56'1 5.9
2018-Jul-18 01:30N 29°41' W 094°58'3 5.4
2018-Jul-18 00:57N 29°42' W 095°01'0 0.1
2018-Jul-17 20:22N 29°42' W 095°01'3 6.4
2018-Jul-17 19:59N 29°41' W 094°59'3 7.1
2018-Jul-17 19:30N 29°38' W 094°58'3 6.9
2018-Jul-17 19:00N 29°35' W 094°56'13 7.4
2018-Jul-17 17:17N 29°23' W 094°49'2 7.1
2018-Jul-17 16:57N 29°21' W 094°49'3 6.8
2018-Jul-17 16:30N 29°19' W 094°52'3 5.7
2018-Jul-17 15:58N 29°17' W 094°54'3 4.7
2018-Jul-17 15:15N 29°17' W 094°58'1 5.6
2018-Jul-17 15:00N 29°16' W 094°59'3 6.0
2018-Jul-17 14:30N 29°14' W 095°02'3 5.8
2018-Jul-17 14:00N 29°12' W 095°04'3 6.1
2018-Jul-17 13:31N 29°10' W 095°07'3 6.6
2018-Jul-17 13:00N 29°08' W 095°10'3 6.4
2018-Jul-17 12:30N 29°06' W 095°12'3 6.4
2018-Jul-17 12:00N 29°03' W 095°13'3 6.8
2018-Jul-17 11:30N 28°60' W 095°15'4 7.4
2018-Jul-17 11:00N 28°57' W 095°18'3 6.4
2018-Jul-17 10:28N 28°55' W 095°21'2 4.7
2018-Jul-17 09:58N 28°54' W 095°24'5 5.9
2018-Jul-17 09:09N 28°52' W 095°28'2 6.2
2018-Jul-17 08:53N 28°51' W 095°30'2 5.9
2018-Jul-17 08:30N 28°50' W 095°32'3 5.6
2018-Jul-17 08:00N 28°48' W 095°34'3 5.7
2018-Jul-17 07:28N 28°46' W 095°37'3 6.1
2018-Jul-17 07:00N 28°46' W 095°41'4 6.6
2018-Jul-17 06:28N 28°45' W 095°44'3 5.8
2018-Jul-17 05:59N 28°45' W 095°48'3 5.6
2018-Jul-17 05:29N 28°44' W 095°51'3 5.6
2018-Jul-17 04:58N 28°43' W 095°54'2 5.3
2018-Jul-17 04:30N 28°42' W 095°56'2 4.7
2018-Jul-17 04:00N 28°41' W 095°59'1 1.9
2018-Jul-17 03:30N 28°40' W 095°60'0 0.9
2018-Jul-17 02:59N 28°40' W 096°00'1 1.4
2018-Jul-17 02:30N 28°40' W 096°01'13 5.7
2018-Jul-17 00:18N 28°33' W 096°13'30 1.9
2018-Jul-16 08:31N 28°29' W 096°47'0 0.0
2018-Jul-16 08:30N 28°29' W 096°47'0 0.0
2018-Jul-16 07:22N 28°29' W 096°47'  

Dump ship's entire track history